createdAt,value
2023-01-18T00:00:31.574Z,-3.64
2023-01-18T00:01:31.574Z,-3.64
2023-01-18T00:02:31.546Z,-3.61
2023-01-18T00:03:31.513Z,-3.60
2023-01-18T00:04:31.522Z,-3.57
2023-01-18T00:05:31.518Z,-3.57
2023-01-18T00:06:31.489Z,-3.49
2023-01-18T00:07:31.509Z,-3.47
2023-01-18T00:08:31.478Z,-3.49
2023-01-18T00:09:31.453Z,-3.41
2023-01-18T00:10:31.457Z,-3.38
2023-01-18T00:11:31.433Z,-3.38
2023-01-18T00:12:31.468Z,-3.44
2023-01-18T00:13:31.454Z,-3.50
2023-01-18T00:14:31.427Z,-3.53
2023-01-18T00:15:31.413Z,-3.57
2023-01-18T00:16:31.435Z,-3.56
2023-01-18T00:17:31.370Z,-3.61
2023-01-18T00:18:31.350Z,-3.62
2023-01-18T00:19:31.382Z,-3.65
2023-01-18T00:20:31.362Z,-3.62
2023-01-18T00:21:31.337Z,-3.64
2023-01-18T00:22:31.330Z,-3.68
2023-01-18T00:23:31.332Z,-3.67
2023-01-18T00:24:31.318Z,-3.67
2023-01-18T00:25:31.322Z,-3.65
2023-01-18T00:26:31.299Z,-3.64
2023-01-18T00:27:31.268Z,-3.67
2023-01-18T00:28:31.279Z,-3.67
2023-01-18T00:29:31.282Z,-3.70
2023-01-18T00:30:31.273Z,-3.68
2023-01-18T00:31:31.299Z,-3.71
2023-01-18T00:32:31.264Z,-3.64
2023-01-18T00:33:31.226Z,-3.49
2023-01-18T00:34:31.220Z,-3.44
2023-01-18T00:35:31.197Z,-3.44
2023-01-18T00:36:31.196Z,-3.50
2023-01-18T00:37:31.172Z,-3.53
2023-01-18T00:38:31.194Z,-3.49
2023-01-18T00:39:31.147Z,-3.41
2023-01-18T00:40:31.172Z,-3.31
2023-01-18T00:41:31.175Z,-3.28
2023-01-18T00:42:31.145Z,-3.28
2023-01-18T00:43:31.147Z,-3.32
2023-01-18T00:44:31.124Z,-3.36
2023-01-18T00:45:31.153Z,-3.41
2023-01-18T00:46:31.100Z,-3.44
2023-01-18T00:47:31.114Z,-3.49
2023-01-18T00:48:31.115Z,-3.54
2023-01-18T00:49:31.074Z,-3.57
2023-01-18T00:50:31.068Z,-3.60
2023-01-18T00:51:31.051Z,-3.51
2023-01-18T00:52:31.085Z,-3.49
2023-01-18T00:53:31.013Z,-3.49
2023-01-18T00:54:31.039Z,-3.43
2023-01-18T00:55:31.035Z,-3.33
2023-01-18T00:56:31.004Z,-3.33
2023-01-18T00:57:30.988Z,-3.35
2023-01-18T00:58:30.978Z,-3.38
2023-01-18T00:59:30.963Z,-3.39
2023-01-18T01:00:30.977Z,-3.44
2023-01-18T01:01:31.058Z,-3.46
2023-01-18T01:02:31.019Z,-3.46
2023-01-18T01:03:30.919Z,-3.50
2023-01-18T01:04:30.920Z,-3.53
2023-01-18T01:05:30.933Z,-3.57
2023-01-18T01:06:30.907Z,-3.61
2023-01-18T01:07:30.900Z,-3.62
2023-01-18T01:08:30.887Z,-3.56
2023-01-18T01:09:30.895Z,-3.53
2023-01-18T01:10:30.893Z,-3.49
2023-01-18T01:11:30.861Z,-3.38
2023-01-18T01:12:30.858Z,-3.39
2023-01-18T01:13:30.832Z,-3.41
2023-01-18T01:14:30.815Z,-3.43
2023-01-18T01:15:30.806Z,-3.46
2023-01-18T01:16:30.831Z,-3.50
2023-01-18T01:17:30.788Z,-3.54
2023-01-18T01:18:30.783Z,-3.57
2023-01-18T01:19:30.760Z,-3.61
2023-01-18T01:20:30.800Z,-3.61
2023-01-18T01:21:30.787Z,-3.61
2023-01-18T01:22:30.784Z,-3.65
2023-01-18T01:23:30.743Z,-3.65
2023-01-18T01:24:30.717Z,-3.70
2023-01-18T01:25:30.709Z,-3.68
2023-01-18T01:26:30.726Z,-3.68
2023-01-18T01:27:30.689Z,-3.67
2023-01-18T01:28:30.695Z,-3.67
2023-01-18T01:29:30.664Z,-3.65
2023-01-18T01:30:30.680Z,-3.62
2023-01-18T01:31:30.681Z,-3.62
2023-01-18T01:32:30.668Z,-3.65
2023-01-18T01:33:30.636Z,-3.62
2023-01-18T01:34:30.617Z,-3.57
2023-01-18T01:35:30.631Z,-3.57
2023-01-18T01:36:30.591Z,-3.61
2023-01-18T01:37:30.600Z,-3.57
2023-01-18T01:38:30.613Z,-3.61
2023-01-18T01:39:30.782Z,-3.65
2023-01-18T01:40:30.551Z,-3.68
2023-01-18T01:41:30.548Z,-3.72
2023-01-18T01:42:30.539Z,-3.76
2023-01-18T01:43:30.550Z,-3.76
2023-01-18T01:44:30.514Z,-3.76
2023-01-18T01:45:30.519Z,-3.65
2023-01-18T01:46:30.505Z,-3.65
2023-01-18T01:47:30.489Z,-3.54
2023-01-18T01:48:30.485Z,-3.57
2023-01-18T01:49:30.487Z,-3.62
2023-01-18T01:50:30.475Z,-3.65
2023-01-18T01:51:30.448Z,-3.70
2023-01-18T01:52:30.433Z,-3.75
2023-01-18T01:53:30.439Z,-3.75
2023-01-18T01:54:30.583Z,-3.80
2023-01-18T01:55:30.406Z,-3.84
2023-01-18T01:56:30.380Z,-3.83
2023-01-18T01:57:30.397Z,-3.75
2023-01-18T01:58:30.382Z,-3.75
2023-01-18T01:59:30.376Z,-3.76
2023-01-18T02:00:30.367Z,-3.83
2023-01-18T02:01:30.467Z,-3.84
2023-01-18T02:02:30.357Z,-3.86
2023-01-18T02:03:30.320Z,-3.89
2023-01-18T02:04:30.346Z,-3.84
2023-01-18T02:05:30.299Z,-3.83
2023-01-18T02:06:30.281Z,-3.80
2023-01-18T02:07:30.281Z,-3.81
2023-01-18T02:08:30.275Z,-3.86
2023-01-18T02:09:30.284Z,-3.86
2023-01-18T02:10:30.343Z,-3.87
2023-01-18T02:11:30.268Z,-3.83
2023-01-18T02:12:30.242Z,-3.87
2023-01-18T02:13:30.223Z,-3.90
2023-01-18T02:14:30.213Z,-3.90
2023-01-18T02:15:30.198Z,-3.93
2023-01-18T02:16:30.203Z,-3.93
2023-01-18T02:17:30.166Z,-3.93
2023-01-18T02:18:30.178Z,-3.89
2023-01-18T02:19:30.174Z,-3.80
2023-01-18T02:20:30.146Z,-3.81
2023-01-18T02:21:30.148Z,-3.84
2023-01-18T02:22:30.113Z,-3.86
2023-01-18T02:23:30.127Z,-3.91
2023-01-18T02:24:30.117Z,-3.93
2023-01-18T02:25:30.090Z,-3.99
2023-01-18T02:26:30.101Z,-4.02
2023-01-18T02:27:30.082Z,-3.99
2023-01-18T02:28:30.064Z,-3.94
2023-01-18T02:29:30.085Z,-3.91
2023-01-18T02:30:30.209Z,-3.91
2023-01-18T02:31:30.073Z,-3.90
2023-01-18T02:32:30.047Z,-3.86
2023-01-18T02:33:30.028Z,-3.90
2023-01-18T02:34:30.007Z,-3.93
2023-01-18T02:35:29.998Z,-3.93
2023-01-18T02:36:29.964Z,-3.98
2023-01-18T02:37:29.979Z,-4.01
2023-01-18T02:38:29.978Z,-4.01
2023-01-18T02:39:29.996Z,-3.99
2023-01-18T02:40:29.941Z,-4.02
2023-01-18T02:41:29.951Z,-4.05
2023-01-18T02:42:29.926Z,-4.07
2023-01-18T02:43:29.929Z,-4.08
2023-01-18T02:44:29.931Z,-4.09
2023-01-18T02:45:29.897Z,-4.11
2023-01-18T02:46:29.898Z,-4.11
2023-01-18T02:47:29.889Z,-4.11
2023-01-18T02:48:29.847Z,-4.12
2023-01-18T02:49:29.870Z,-4.14
2023-01-18T02:50:29.859Z,-4.15
2023-01-18T02:51:29.854Z,-4.18
2023-01-18T02:52:29.808Z,-4.18
2023-01-18T02:53:29.810Z,-4.15
2023-01-18T02:54:29.806Z,-4.09
2023-01-18T02:55:29.796Z,-4.07
2023-01-18T02:56:29.779Z,-4.08
2023-01-18T02:57:29.775Z,-4.08
2023-01-18T02:58:29.763Z,-4.11
2023-01-18T02:59:29.759Z,-4.14
2023-01-18T03:00:29.741Z,-4.15
2023-01-18T03:01:29.864Z,-4.20
2023-01-18T03:02:29.741Z,-4.23
2023-01-18T03:03:29.721Z,-4.23
2023-01-18T03:04:29.688Z,-4.25
2023-01-18T03:05:29.693Z,-4.26
2023-01-18T03:06:29.683Z,-4.25
2023-01-18T03:07:29.696Z,-4.28
2023-01-18T03:08:29.659Z,-4.28
2023-01-18T03:09:29.639Z,-4.20
2023-01-18T03:10:29.661Z,-4.19
2023-01-18T03:11:29.622Z,-4.19
2023-01-18T03:12:29.612Z,-4.23
2023-01-18T03:13:29.633Z,-4.25
2023-01-18T03:14:29.586Z,-4.25
2023-01-18T03:15:29.666Z,-4.25
2023-01-18T03:16:29.567Z,-4.28
2023-01-18T03:17:29.586Z,-4.30
2023-01-18T03:18:29.566Z,-4.30
2023-01-18T03:19:29.544Z,-4.23
2023-01-18T03:20:29.527Z,-4.26
2023-01-18T03:21:29.532Z,-4.29
2023-01-18T03:22:29.529Z,-4.30
2023-01-18T03:23:29.526Z,-4.33
2023-01-18T03:24:29.489Z,-4.29
2023-01-18T03:25:29.552Z,-4.29
2023-01-18T03:26:29.501Z,-4.30
2023-01-18T03:27:29.480Z,-4.29
2023-01-18T03:28:29.440Z,-4.32
2023-01-18T03:29:29.447Z,-4.36
2023-01-18T03:30:29.433Z,-4.33
2023-01-18T03:31:29.575Z,-4.30
2023-01-18T03:32:29.398Z,-4.30
2023-01-18T03:33:29.415Z,-4.28
2023-01-18T03:34:29.395Z,-4.28
2023-01-18T03:35:29.388Z,-4.29
2023-01-18T03:36:29.363Z,-4.29
2023-01-18T03:37:29.376Z,-4.29
2023-01-18T03:38:29.348Z,-4.30
2023-01-18T03:39:29.362Z,-4.32
2023-01-18T03:40:29.333Z,-4.33
2023-01-18T03:41:29.339Z,-4.33
2023-01-18T03:42:29.314Z,-4.32
2023-01-18T03:43:29.332Z,-4.33
2023-01-18T03:44:29.279Z,-4.33
2023-01-18T03:45:29.299Z,-4.37
2023-01-18T03:46:29.306Z,-4.37
2023-01-18T03:47:29.280Z,-4.38
2023-01-18T03:48:29.252Z,-4.40
2023-01-18T03:49:29.289Z,-4.40
2023-01-18T03:50:29.230Z,-4.41
2023-01-18T03:51:29.233Z,-4.40
2023-01-18T03:52:29.217Z,-4.38
2023-01-18T03:53:29.240Z,-4.33
2023-01-18T03:54:29.197Z,-4.32
2023-01-18T03:55:29.187Z,-4.30
2023-01-18T03:56:29.171Z,-4.30
2023-01-18T03:57:29.169Z,-4.26
2023-01-18T03:58:32.328Z,-4.18
2023-01-18T03:59:29.150Z,-4.15
2023-01-18T04:00:29.148Z,-4.18
2023-01-18T04:01:29.305Z,-4.12
2023-01-18T04:02:29.332Z,-4.15
2023-01-18T04:03:29.207Z,-4.15
2023-01-18T04:04:29.106Z,-4.12
2023-01-18T04:05:29.139Z,-4.12
2023-01-18T04:06:29.113Z,-4.18
2023-01-18T04:07:29.127Z,-4.14
2023-01-18T04:08:29.057Z,-4.12
2023-01-18T04:09:29.079Z,-4.11
2023-01-18T04:10:29.132Z,-4.12
2023-01-18T04:11:29.037Z,-4.15
2023-01-18T04:12:29.008Z,-4.14
2023-01-18T04:13:29.315Z,-4.14
2023-01-18T04:14:29.010Z,-4.15
2023-01-18T04:15:28.991Z,-4.18
2023-01-18T04:16:28.966Z,-4.20
2023-01-18T04:17:28.993Z,-4.19
2023-01-18T04:18:28.954Z,-4.18
2023-01-18T04:19:28.962Z,-4.15
2023-01-18T04:20:28.925Z,-4.19
2023-01-18T04:21:28.932Z,-4.19
2023-01-18T04:22:28.916Z,-4.19
2023-01-18T04:23:28.917Z,-4.22
2023-01-18T04:24:28.880Z,-4.22
2023-01-18T04:25:28.903Z,-4.28
2023-01-18T04:26:28.877Z,-4.28
2023-01-18T04:27:28.864Z,-4.29
2023-01-18T04:28:28.854Z,-4.30
2023-01-18T04:29:28.850Z,-4.30
2023-01-18T04:30:28.837Z,-4.32
2023-01-18T04:31:28.876Z,-4.33
2023-01-18T04:32:28.839Z,-4.36
2023-01-18T04:33:28.810Z,-4.36
2023-01-18T04:34:28.788Z,-4.37
2023-01-18T04:35:28.834Z,-4.40
2023-01-18T04:36:28.770Z,-4.38
2023-01-18T04:37:28.767Z,-4.41
2023-01-18T04:38:28.745Z,-4.40
2023-01-18T04:39:28.757Z,-4.37
2023-01-18T04:40:28.722Z,-4.36
2023-01-18T04:41:28.780Z,-4.28
2023-01-18T04:42:28.744Z,-4.25
2023-01-18T04:43:28.723Z,-4.22
2023-01-18T04:44:28.695Z,-4.25
2023-01-18T04:45:28.687Z,-4.25
2023-01-18T04:46:28.722Z,-4.26
2023-01-18T04:47:28.683Z,-4.26
2023-01-18T04:48:28.681Z,-4.29
2023-01-18T04:49:28.663Z,-4.30
2023-01-18T04:50:28.632Z,-4.33
2023-01-18T04:51:28.652Z,-4.36
2023-01-18T04:52:28.611Z,-4.37
2023-01-18T04:53:28.604Z,-4.32
2023-01-18T04:54:28.600Z,-4.29
2023-01-18T04:55:28.588Z,-4.29
2023-01-18T04:56:28.582Z,-4.30
2023-01-18T04:57:28.573Z,-4.32
2023-01-18T04:58:28.541Z,-4.33
2023-01-18T04:59:28.584Z,-4.38
2023-01-18T05:00:28.567Z,-4.37
2023-01-18T05:01:28.683Z,-4.38
2023-01-18T05:02:28.598Z,-4.38
2023-01-18T05:03:28.509Z,-4.40
2023-01-18T05:04:28.501Z,-4.43
2023-01-18T05:05:28.506Z,-4.41
2023-01-18T05:06:28.494Z,-4.43
2023-01-18T05:07:28.469Z,-4.41
2023-01-18T05:08:28.470Z,-4.43
2023-01-18T05:09:28.450Z,-4.46
2023-01-18T05:10:28.450Z,-4.47
2023-01-18T05:11:28.433Z,-4.43
2023-01-18T05:12:28.432Z,-4.41
2023-01-18T05:13:28.411Z,-4.41
2023-01-18T05:14:28.402Z,-4.41
2023-01-18T05:15:28.395Z,-4.41
2023-01-18T05:16:28.413Z,-4.38
2023-01-18T05:17:28.368Z,-4.36
2023-01-18T05:18:28.370Z,-4.33
2023-01-18T05:19:28.359Z,-4.32
2023-01-18T05:20:28.332Z,-4.30
2023-01-18T05:21:28.362Z,-4.32
2023-01-18T05:22:28.338Z,-4.33
2023-01-18T05:23:28.322Z,-4.33
2023-01-18T05:24:29.972Z,-4.36
2023-01-18T05:25:28.303Z,-4.36
2023-01-18T05:26:28.294Z,-4.38
2023-01-18T05:27:28.288Z,-4.38
2023-01-18T05:28:28.272Z,-4.37
2023-01-18T05:29:28.264Z,-4.40
2023-01-18T05:30:28.234Z,-4.38
2023-01-18T05:31:28.273Z,-4.40
2023-01-18T05:32:28.228Z,-4.40
2023-01-18T05:33:28.228Z,-4.41
2023-01-18T05:34:28.206Z,-4.41
2023-01-18T05:35:28.199Z,-4.41
2023-01-18T05:36:28.193Z,-4.40
2023-01-18T05:37:28.203Z,-4.29
2023-01-18T05:38:28.171Z,-4.26
2023-01-18T05:39:28.167Z,-4.29
2023-01-18T05:40:28.150Z,-4.29
2023-01-18T05:41:28.330Z,-4.33
2023-01-18T05:42:28.146Z,-4.33
2023-01-18T05:43:28.120Z,-4.37
2023-01-18T05:44:28.111Z,-4.40
2023-01-18T05:45:28.155Z,-4.37
2023-01-18T05:46:28.109Z,-4.32
2023-01-18T05:47:28.094Z,-4.32
2023-01-18T05:48:28.085Z,-4.32
2023-01-18T05:49:28.066Z,-4.36
2023-01-18T05:50:28.060Z,-4.37
2023-01-18T05:51:28.083Z,-4.40
2023-01-18T05:52:28.045Z,-4.43
2023-01-18T05:53:28.040Z,-4.43
2023-01-18T05:54:28.018Z,-4.44
2023-01-18T05:55:28.008Z,-4.46
2023-01-18T05:56:28.001Z,-4.46
2023-01-18T05:57:27.994Z,-4.48
2023-01-18T05:58:28.008Z,-4.47
2023-01-18T05:59:27.964Z,-4.50
2023-01-18T06:00:27.974Z,-4.51
2023-01-18T06:01:27.950Z,-4.54
2023-01-18T06:02:27.957Z,-4.54
2023-01-18T06:03:27.946Z,-4.48
2023-01-18T06:04:27.953Z,-4.41
2023-01-18T06:05:27.920Z,-4.41
2023-01-18T06:06:27.941Z,-4.40
2023-01-18T06:07:27.890Z,-4.43
2023-01-18T06:08:27.886Z,-4.44
2023-01-18T06:09:27.899Z,-4.40
2023-01-18T06:10:27.855Z,-4.38
2023-01-18T06:11:27.843Z,-4.38
2023-01-18T06:12:27.860Z,-4.37
2023-01-18T06:13:27.835Z,-4.33
2023-01-18T06:14:27.830Z,-4.33
2023-01-18T06:15:27.848Z,-4.33
2023-01-18T06:16:27.841Z,-4.32
2023-01-18T06:17:27.841Z,-4.32
2023-01-18T06:18:27.785Z,-4.33
2023-01-18T06:19:27.801Z,-4.36
2023-01-18T06:20:27.801Z,-4.33
2023-01-18T06:21:27.773Z,-4.37
2023-01-18T06:22:27.791Z,-4.38
2023-01-18T06:23:27.751Z,-4.38
2023-01-18T06:24:27.756Z,-4.41
2023-01-18T06:25:27.732Z,-4.43
2023-01-18T06:26:27.711Z,-4.41
2023-01-18T06:27:27.795Z,-4.43
2023-01-18T06:28:30.369Z,-4.38
2023-01-18T06:29:27.674Z,-4.40
2023-01-18T06:30:27.676Z,-4.40
2023-01-18T06:31:27.696Z,-4.43
2023-01-18T06:32:27.684Z,-4.47
2023-01-18T06:33:27.663Z,-4.44
2023-01-18T06:34:30.193Z,-4.41
2023-01-18T06:35:27.650Z,-4.38
2023-01-18T06:36:27.614Z,-4.40
2023-01-18T06:37:27.611Z,-4.43
2023-01-18T06:38:27.621Z,-4.43
2023-01-18T06:39:27.575Z,-4.47
2023-01-18T06:40:27.625Z,-4.48
2023-01-18T06:41:27.583Z,-4.48
2023-01-18T06:42:27.571Z,-4.50
2023-01-18T06:43:27.584Z,-4.51
2023-01-18T06:44:27.603Z,-4.47
2023-01-18T06:45:27.582Z,-4.50
2023-01-18T06:46:27.559Z,-4.48
2023-01-18T06:47:27.513Z,-4.50
2023-01-18T06:48:27.501Z,-4.51
2023-01-18T06:49:27.536Z,-4.51
2023-01-18T06:50:27.516Z,-4.47
2023-01-18T06:51:27.495Z,-4.46
2023-01-18T06:52:27.466Z,-4.46
2023-01-18T06:53:27.745Z,-4.46
2023-01-18T06:54:34.953Z,-4.47
2023-01-18T06:55:27.424Z,-4.47
2023-01-18T06:56:27.428Z,-4.46
2023-01-18T06:57:27.409Z,-4.50
2023-01-18T06:58:27.425Z,-4.50
2023-01-18T06:59:27.345Z,-4.51
2023-01-18T07:00:27.339Z,-4.51
2023-01-18T07:01:27.468Z,-4.51
2023-01-18T07:02:27.341Z,-4.54
2023-01-18T07:03:27.311Z,-4.54
2023-01-18T07:04:27.399Z,-4.51
2023-01-18T07:05:27.280Z,-4.51
2023-01-18T07:06:27.309Z,-4.55
2023-01-18T07:07:27.287Z,-4.55
2023-01-18T07:08:27.255Z,-4.59
2023-01-18T07:09:27.240Z,-4.58
2023-01-18T07:10:27.262Z,-4.58
2023-01-18T07:11:27.231Z,-4.58
2023-01-18T07:12:27.287Z,-4.61
2023-01-18T07:13:27.267Z,-4.61
2023-01-18T07:14:27.235Z,-4.58
2023-01-18T07:15:27.224Z,-4.58
2023-01-18T07:16:27.271Z,-4.57
2023-01-18T07:17:27.182Z,-4.57
2023-01-18T07:18:27.188Z,-4.59
2023-01-18T07:19:27.177Z,-4.58
2023-01-18T07:20:27.158Z,-4.54
2023-01-18T07:21:27.134Z,-4.57
2023-01-18T07:22:27.135Z,-4.54
2023-01-18T07:23:27.142Z,-4.55
2023-01-18T07:24:27.139Z,-4.54
2023-01-18T07:25:27.089Z,-4.51
2023-01-18T07:26:27.112Z,-4.50
2023-01-18T07:27:27.076Z,-4.48
2023-01-18T07:28:27.077Z,-4.47
2023-01-18T07:29:27.080Z,-4.46
2023-01-18T07:30:27.054Z,-4.46
2023-01-18T07:31:27.039Z,-4.44
2023-01-18T07:32:27.048Z,-4.41
2023-01-18T07:33:27.014Z,-4.46
2023-01-18T07:34:27.021Z,-4.46
2023-01-18T07:35:27.015Z,-4.46
2023-01-18T07:36:26.991Z,-4.44
2023-01-18T07:37:26.993Z,-4.43
2023-01-18T07:38:27.031Z,-4.36
2023-01-18T07:39:26.982Z,-4.32
2023-01-18T07:40:27.002Z,-4.25
2023-01-18T07:41:27.068Z,-4.20
2023-01-18T07:42:26.966Z,-4.11
2023-01-18T07:43:26.919Z,-4.12
2023-01-18T07:44:26.964Z,-4.12
2023-01-18T07:45:26.887Z,-4.09
2023-01-18T07:46:26.935Z,-4.09
2023-01-18T07:47:26.900Z,-4.11
2023-01-18T07:48:26.895Z,-4.14
2023-01-18T07:49:26.872Z,-4.18
2023-01-18T07:50:26.897Z,-4.18
2023-01-18T07:51:26.833Z,-4.18
2023-01-18T07:52:26.836Z,-4.20
2023-01-18T07:53:26.862Z,-4.22
2023-01-18T07:54:26.823Z,-4.23
2023-01-18T07:55:26.829Z,-4.23
2023-01-18T07:56:26.806Z,-4.26
2023-01-18T07:57:26.777Z,-4.25
2023-01-18T07:58:26.790Z,-4.22
2023-01-18T07:59:26.809Z,-4.19
2023-01-18T08:00:26.789Z,-4.19
2023-01-18T08:01:26.885Z,-4.19
2023-01-18T08:02:26.804Z,-4.19
2023-01-18T08:03:26.733Z,-4.19
2023-01-18T08:04:26.764Z,-4.20
2023-01-18T08:05:26.707Z,-4.19
2023-01-18T08:06:26.790Z,-4.15
2023-01-18T08:07:26.725Z,-4.08
2023-01-18T08:08:26.688Z,-4.04
2023-01-18T08:09:26.697Z,-4.01
2023-01-18T08:10:26.677Z,-4.04
2023-01-18T08:11:26.677Z,-4.05
2023-01-18T08:12:26.653Z,-4.02
2023-01-18T08:13:26.654Z,-4.04
2023-01-18T08:14:26.643Z,-4.04
2023-01-18T08:15:26.628Z,-4.02
2023-01-18T08:16:26.607Z,-4.04
2023-01-18T08:17:26.595Z,-3.96
2023-01-18T08:18:26.626Z,-3.96
2023-01-18T08:19:26.564Z,-3.75
2023-01-18T08:20:26.582Z,-3.65
2023-01-18T08:21:26.577Z,-3.65
2023-01-18T08:22:26.557Z,-3.67
2023-01-18T08:23:26.556Z,-3.68
2023-01-18T08:24:27.476Z,-3.71
2023-01-18T08:25:26.541Z,-3.71
2023-01-18T08:26:26.859Z,-3.76
2023-01-18T08:27:27.398Z,-3.76
2023-01-18T08:28:26.492Z,-3.78
2023-01-18T08:29:26.476Z,-3.70
2023-01-18T08:30:26.490Z,-3.68
2023-01-18T08:31:26.563Z,-3.67
2023-01-18T08:32:26.479Z,-3.68
2023-01-18T08:33:26.448Z,-3.67
2023-01-18T08:34:26.433Z,-3.68
2023-01-18T08:35:26.446Z,-3.61
2023-01-18T08:36:26.443Z,-3.56
2023-01-18T08:37:26.416Z,-3.57
2023-01-18T08:38:26.400Z,-3.57
2023-01-18T08:39:26.376Z,-3.61
2023-01-18T08:40:26.373Z,-3.61
2023-01-18T08:41:28.310Z,-3.60
2023-01-18T08:42:26.387Z,-3.56
2023-01-18T08:43:26.351Z,-3.49
2023-01-18T08:44:26.354Z,-3.41
2023-01-18T08:45:26.347Z,-3.33
2023-01-18T08:46:26.422Z,-3.28
2023-01-18T08:47:26.340Z,-3.17
2023-01-18T08:48:26.307Z,-3.11
2023-01-18T08:49:26.348Z,-3.08
2023-01-18T08:50:26.350Z,-3.07
2023-01-18T08:51:26.380Z,-2.99
2023-01-18T08:52:26.261Z,-2.93
2023-01-18T08:53:26.247Z,-2.78
2023-01-18T08:54:26.243Z,-2.71
2023-01-18T08:55:26.227Z,-2.64
2023-01-18T08:56:26.244Z,-2.58
2023-01-18T08:57:26.204Z,-2.56
2023-01-18T08:58:26.213Z,-2.51
2023-01-18T08:59:26.223Z,-2.39
2023-01-18T09:00:27.091Z,-2.35
2023-01-18T09:01:26.232Z,-2.35
2023-01-18T09:02:26.223Z,-2.35
2023-01-18T09:03:26.194Z,-2.38
2023-01-18T09:04:26.172Z,-2.36
2023-01-18T09:05:26.119Z,-2.33
2023-01-18T09:06:26.126Z,-2.32
2023-01-18T09:07:26.108Z,-2.32
2023-01-18T09:08:26.101Z,-2.29
2023-01-18T09:09:26.098Z,-2.24
2023-01-18T09:10:26.161Z,-2.23
2023-01-18T09:11:26.081Z,-2.11
2023-01-18T09:12:26.062Z,-2.05
2023-01-18T09:13:26.038Z,-2.05
2023-01-18T09:14:26.061Z,-2.05
2023-01-18T09:15:26.035Z,-1.98
2023-01-18T09:16:26.114Z,-1.92
2023-01-18T09:17:26.003Z,-1.85
2023-01-18T09:18:26.010Z,-1.81
2023-01-18T09:19:25.994Z,-1.77
2023-01-18T09:20:26.068Z,-1.72
2023-01-18T09:21:25.969Z,-1.72
2023-01-18T09:22:25.967Z,-1.77
2023-01-18T09:23:25.988Z,-1.74
2023-01-18T09:24:25.939Z,-1.69
2023-01-18T09:25:25.928Z,-1.66
2023-01-18T09:26:25.936Z,-1.60
2023-01-18T09:27:25.908Z,-1.63
2023-01-18T09:28:25.899Z,-1.63
2023-01-18T09:29:25.895Z,-1.60
2023-01-18T09:30:25.897Z,-1.62
2023-01-18T09:31:26.009Z,-1.60
2023-01-18T09:32:25.863Z,-1.57
2023-01-18T09:33:36.811Z,-1.57
2023-01-18T09:34:25.847Z,-1.54
2023-01-18T09:35:25.831Z,-1.51
2023-01-18T09:36:25.841Z,-1.43
2023-01-18T09:37:25.797Z,-1.42
2023-01-18T09:38:25.808Z,-1.43
2023-01-18T09:39:25.799Z,-1.49
2023-01-18T09:40:25.781Z,-1.49
2023-01-18T09:41:25.775Z,-1.53
2023-01-18T09:42:25.767Z,-1.51
2023-01-18T09:43:25.737Z,-1.49
2023-01-18T09:44:25.738Z,-1.53
2023-01-18T09:45:25.728Z,-1.54
2023-01-18T09:46:25.806Z,-1.51
2023-01-18T09:47:25.711Z,-1.43
2023-01-18T09:48:25.721Z,-1.36
2023-01-18T09:49:25.696Z,-1.35
2023-01-18T09:50:25.686Z,-1.35
2023-01-18T09:51:25.850Z,-1.36
2023-01-18T09:52:25.664Z,-1.33
2023-01-18T09:53:25.641Z,-1.33
2023-01-18T09:54:25.663Z,-1.33
2023-01-18T09:55:25.630Z,-1.28
2023-01-18T09:56:25.625Z,-1.30
2023-01-18T09:57:25.599Z,-1.30
2023-01-18T09:58:25.594Z,-1.30
2023-01-18T09:59:25.601Z,-1.28
2023-01-18T10:00:25.569Z,-1.27
2023-01-18T10:01:25.738Z,-1.23
2023-01-18T10:02:25.658Z,-1.21
2023-01-18T10:03:25.550Z,-1.20
2023-01-18T10:04:25.531Z,-1.17
2023-01-18T10:05:25.531Z,-1.13
2023-01-18T10:06:25.512Z,-1.07
2023-01-18T10:07:25.523Z,-1.06
2023-01-18T10:08:25.489Z,-1.07
2023-01-18T10:09:25.495Z,-1.06
2023-01-18T10:10:25.463Z,-1.05
2023-01-18T10:11:25.463Z,-0.92
2023-01-18T10:12:25.466Z,-0.87
2023-01-18T10:13:25.468Z,-0.86
2023-01-18T10:14:25.431Z,-0.80
2023-01-18T10:15:25.441Z,-0.72
2023-01-18T10:16:25.484Z,-0.72
2023-01-18T10:17:25.418Z,-0.66
2023-01-18T10:18:25.392Z,-0.65
2023-01-18T10:19:25.395Z,-0.65
2023-01-18T10:20:25.386Z,-0.59
2023-01-18T10:21:25.373Z,-0.47
2023-01-18T10:22:25.375Z,-0.44
2023-01-18T10:23:26.346Z,-0.45
2023-01-18T10:24:25.323Z,-0.47
2023-01-18T10:25:25.333Z,-0.37
2023-01-18T10:26:25.403Z,-0.34
2023-01-18T10:27:25.319Z,-0.34
2023-01-18T10:28:25.424Z,-0.37
2023-01-18T10:29:25.289Z,-0.36
2023-01-18T10:30:25.271Z,-0.37
2023-01-18T10:31:25.310Z,-0.34
2023-01-18T10:32:25.257Z,-0.34
2023-01-18T10:33:25.258Z,-0.29
2023-01-18T10:34:25.229Z,-0.24
2023-01-18T10:35:25.301Z,-0.23
2023-01-18T10:36:25.219Z,-0.24
2023-01-18T10:37:25.222Z,-0.12
2023-01-18T10:38:25.858Z,-0.09
2023-01-18T10:39:25.193Z,-0.11
2023-01-18T10:40:25.178Z,-0.08
2023-01-18T10:41:25.173Z,-0.06
2023-01-18T10:42:25.147Z,-0.08
2023-01-18T10:43:25.237Z,-0.08
2023-01-18T10:44:25.136Z,-0.06
2023-01-18T10:45:25.209Z,-0.05
2023-01-18T10:46:25.117Z,0.00
2023-01-18T10:47:25.121Z,0.00
2023-01-18T10:48:25.099Z,0.15
2023-01-18T10:49:25.094Z,0.16
2023-01-18T10:50:25.075Z,0.20
2023-01-18T10:51:25.070Z,0.27
2023-01-18T10:52:25.061Z,0.33
2023-01-18T10:53:25.083Z,0.34
2023-01-18T10:54:25.033Z,0.39
2023-01-18T10:55:25.032Z,0.39
2023-01-18T10:56:25.029Z,0.42
2023-01-18T10:57:25.046Z,0.48
2023-01-18T10:58:24.999Z,0.58
2023-01-18T10:59:24.994Z,0.70
2023-01-18T11:00:24.985Z,0.71
2023-01-18T11:01:25.173Z,0.79
2023-01-18T11:02:25.037Z,0.86
2023-01-18T11:03:24.956Z,0.89
2023-01-18T11:04:24.967Z,0.94
2023-01-18T11:05:24.929Z,1.00
2023-01-18T11:06:24.914Z,1.04
2023-01-18T11:07:24.906Z,1.14
2023-01-18T11:08:24.901Z,1.14
2023-01-18T11:09:24.974Z,1.14
2023-01-18T11:10:24.870Z,1.08
2023-01-18T11:11:24.864Z,1.04
2023-01-18T11:12:24.854Z,1.06
2023-01-18T11:13:24.857Z,1.10
2023-01-18T11:14:24.856Z,1.12
2023-01-18T11:15:24.852Z,1.12
2023-01-18T11:16:24.837Z,1.10
2023-01-18T11:17:24.810Z,1.08
2023-01-18T11:18:24.834Z,1.04
2023-01-18T11:19:24.800Z,1.03
2023-01-18T11:20:24.806Z,1.03
2023-01-18T11:21:24.772Z,1.01
2023-01-18T11:22:24.744Z,0.98
2023-01-18T11:23:24.760Z,1.01
2023-01-18T11:24:24.742Z,1.00
2023-01-18T11:25:24.731Z,0.98
2023-01-18T11:26:24.864Z,1.01
2023-01-18T11:27:24.705Z,1.03
2023-01-18T11:28:24.704Z,1.03
2023-01-18T11:29:26.026Z,1.04
2023-01-18T11:30:24.669Z,1.01
2023-01-18T11:31:24.680Z,1.04
2023-01-18T11:32:24.660Z,1.14
2023-01-18T11:33:24.657Z,1.14
2023-01-18T11:34:24.625Z,1.15
2023-01-18T11:35:24.625Z,1.24
2023-01-18T11:36:24.614Z,1.24
2023-01-18T11:37:24.623Z,1.25
2023-01-18T11:38:24.605Z,1.25
2023-01-18T11:39:24.589Z,1.25
2023-01-18T11:40:24.575Z,1.29
2023-01-18T11:41:24.584Z,1.37
2023-01-18T11:42:24.587Z,1.43
2023-01-18T11:43:24.554Z,1.44
2023-01-18T11:44:24.562Z,1.46
2023-01-18T11:45:24.588Z,1.50
2023-01-18T11:46:24.553Z,1.50
2023-01-18T11:47:24.517Z,1.57
2023-01-18T11:48:24.502Z,1.62
2023-01-18T11:49:24.500Z,1.69
2023-01-18T11:50:24.461Z,1.71
2023-01-18T11:51:24.510Z,1.71
2023-01-18T11:52:24.497Z,1.75
2023-01-18T11:53:24.482Z,1.73
2023-01-18T11:54:24.431Z,1.73
2023-01-18T11:55:24.466Z,1.72
2023-01-18T11:56:24.410Z,1.75
2023-01-18T11:57:24.421Z,1.75
2023-01-18T11:58:24.425Z,1.75
2023-01-18T11:59:24.389Z,1.73
2023-01-18T12:00:24.367Z,1.75
2023-01-18T12:01:24.370Z,1.76
2023-01-18T12:02:24.371Z,1.76
2023-01-18T12:03:24.480Z,1.78
2023-01-18T12:04:24.323Z,1.87
2023-01-18T12:05:24.332Z,1.93
2023-01-18T12:06:24.302Z,1.97
2023-01-18T12:07:24.304Z,2.01
2023-01-18T12:08:24.283Z,1.98
2023-01-18T12:09:24.374Z,1.99
2023-01-18T12:10:24.280Z,1.99
2023-01-18T12:11:24.290Z,2.01
2023-01-18T12:12:24.262Z,1.99
2023-01-18T12:13:24.255Z,2.01
2023-01-18T12:14:24.246Z,2.01
2023-01-18T12:15:24.272Z,1.97
2023-01-18T12:16:24.259Z,1.93
2023-01-18T12:17:24.224Z,1.93
2023-01-18T12:18:24.185Z,1.94
2023-01-18T12:19:24.200Z,1.99
2023-01-18T12:20:24.245Z,1.99
2023-01-18T12:21:24.174Z,1.97
2023-01-18T12:22:24.197Z,1.93
2023-01-18T12:23:24.185Z,1.94
2023-01-18T12:24:24.144Z,1.94
2023-01-18T12:25:24.151Z,1.97
2023-01-18T12:26:24.138Z,1.98
2023-01-18T12:27:24.130Z,1.93
2023-01-18T12:28:24.129Z,1.94
2023-01-18T12:29:24.120Z,1.97
2023-01-18T12:30:24.085Z,1.98
2023-01-18T12:31:24.067Z,1.97
2023-01-18T12:32:24.064Z,2.01
2023-01-18T12:33:38.275Z,2.01
2023-01-18T12:34:24.045Z,2.01
2023-01-18T12:35:25.312Z,2.06
2023-01-18T12:36:24.033Z,2.08
2023-01-18T12:37:24.018Z,2.09
2023-01-18T12:38:24.009Z,2.08
2023-01-18T12:39:24.035Z,2.10
2023-01-18T12:40:23.958Z,2.08
2023-01-18T12:41:23.986Z,2.09
2023-01-18T12:42:23.948Z,2.10
2023-01-18T12:43:23.953Z,2.10
2023-01-18T12:44:23.933Z,2.15
2023-01-18T12:45:23.942Z,2.16
2023-01-18T12:46:23.949Z,2.17
2023-01-18T12:47:23.931Z,2.19
2023-01-18T12:48:23.899Z,2.17
2023-01-18T12:49:23.936Z,2.17
2023-01-18T12:50:23.905Z,2.17
2023-01-18T12:51:23.943Z,2.17
2023-01-18T12:52:23.885Z,2.20
2023-01-18T12:53:23.887Z,2.27
2023-01-18T12:54:23.843Z,2.27
2023-01-18T12:55:23.906Z,2.27
2023-01-18T12:56:23.816Z,2.30